Time;durP1;ratioP1;P1;durP2;ratioP2;P2;SDS_P1;SDS_P2;PMS_P1;PMS_P2;Temp;Humidity;BMP_temperature;BMP_pressure;BME280_temperature;BME280_humidity;BME280_pressure;Samples;Min_cycle;Max_cycle;Signal;HPM_P1;HPM_P2
2022/10/20 00:00:40;;;;;;;2.50;1.00;;;21.40;46.50;;;;;;5047966;28;20112;-54
2022/10/20 00:03:06;;;;;;;1.00;0.80;;;21.40;46.50;;;;;;5051021;28;20043;-54
2022/10/20 00:05:32;;;;;;;1.27;0.68;;;21.40;46.50;;;;;;5050878;28;20456;-51
2022/10/20 00:07:57;;;;;;;1.73;0.70;;;21.40;46.50;;;;;;5050776;28;20394;-52
2022/10/20 00:10:23;;;;;;;0.80;0.60;;;21.40;46.50;;;;;;5048151;28;20725;-53
2022/10/20 00:12:49;;;;;;;1.38;0.70;;;21.40;46.40;;;;;;5049564;28;20368;-49
2022/10/20 00:15:15;;;;;;;1.15;0.60;;;21.30;46.40;;;;;;5050581;28;20039;-51
2022/10/20 00:17:43;;;;;;;0.98;0.77;;;21.40;46.40;;;;;;5049822;28;20044;-52
2022/10/20 00:20:10;;;;;;;1.45;0.60;;;21.40;46.30;;;;;;5049079;28;20072;-53
2022/10/20 00:22:35;;;;;;;1.48;0.77;;;21.40;46.30;;;;;;5048758;28;20036;-50
2022/10/20 00:25:01;;;;;;;0.98;0.50;;;21.40;46.30;;;;;;5050400;28;20029;-53
2022/10/20 00:27:27;;;;;;;1.60;0.73;;;21.40;46.30;;;;;;5050802;28;20055;-50
2022/10/20 00:29:53;;;;;;;2.10;0.57;;;21.40;46.30;;;;;;5049543;28;20021;-51
2022/10/20 00:32:18;;;;;;;1.13;0.65;;;21.40;46.20;;;;;;5049949;28;20040;-50
2022/10/20 00:34:44;;;;;;;1.80;0.70;;;21.40;46.30;;;;;;5049195;28;20583;-51
2022/10/20 00:37:10;;;;;;;2.63;0.80;;;21.30;46.10;;;;;;5046949;28;20026;-51
2022/10/20 00:39:36;;;;;;;3.60;0.70;;;21.30;46.70;;;;;;5048397;28;20037;-49
2022/10/20 00:42:03;;;;;;;1.05;0.63;;;21.40;46.20;;;;;;5048961;28;20040;-47
2022/10/20 00:44:47;;;;;;;1.23;0.80;;;21.40;46.10;;;;;;5035045;28;21951;-51
2022/10/20 00:47:23;;;;;;;2.15;0.90;;;21.30;46.10;;;;;;5048091;28;20333;-48
2022/10/20 00:49:50;;;;;;;1.58;0.75;;;21.40;46.10;;;;;;5049878;28;20036;-51
2022/10/20 00:52:19;;;;;;;1.73;0.75;;;21.30;46.00;;;;;;5048444;28;20029;-52
2022/10/20 00:54:46;;;;;;;1.50;0.80;;;21.40;46.10;;;;;;5048062;28;20131;-48
2022/10/20 00:57:12;;;;;;;2.38;0.80;;;21.30;46.00;;;;;;5048335;28;20475;-50
2022/10/20 00:59:38;;;;;;;1.83;0.75;;;21.30;46.00;;;;;;5045763;28;20033;-49
2022/10/20 01:02:06;;;;;;;1.42;1.00;;;21.40;46.10;;;;;;5048754;28;20476;-51
2022/10/20 01:04:33;;;;;;;1.13;0.75;;;21.30;46.00;;;;;;5047281;28;20452;-50
2022/10/20 01:06:59;;;;;;;2.17;0.80;;;21.30;46.00;;;;;;5048428;28;20448;-51
2022/10/20 01:09:25;;;;;;;1.85;0.80;;;21.30;46.00;;;;;;5045758;28;20043;-45
2022/10/20 01:12:05;;;;;;;2.88;0.50;;;21.30;46.00;;;;;;5048363;28;20053;-50
2022/10/20 01:15:01;;;;;;;0.82;0.50;;;21.30;46.00;;;;;;5048014;28;20077;-51
2022/10/20 01:17:33;;;;;;;1.65;0.73;;;21.30;46.00;;;;;;5049513;28;20021;-49
2022/10/20 01:20:34;;;;;;;1.33;0.70;;;21.30;46.00;;;;;;5045982;28;20037;-47
2022/10/20 01:23:24;;;;;;;1.17;0.70;;;21.30;45.90;;;;;;5048959;28;20502;-49
2022/10/20 01:26:08;;;;;;;1.05;0.60;;;21.30;45.90;;;;;;5047619;28;20032;-50
2022/10/20 01:28:45;;;;;;;1.67;0.85;;;21.30;46.00;;;;;;5048560;28;20029;-51
2022/10/20 01:31:18;;;;;;;1.98;0.70;;;21.30;46.00;;;;;;5046482;28;20360;-50
2022/10/20 01:33:58;;;;;;;1.10;0.53;;;21.30;46.00;;;;;;5046275;28;20055;-50
2022/10/20 01:36:33;;;;;;;1.10;0.63;;;21.30;45.90;;;;;;5047671;28;20314;-50
2022/10/20 01:39:06;;;;;;;1.65;0.80;;;21.30;45.90;;;;;;5047064;28;20041;-49
2022/10/20 01:41:44;;;;;;;1.60;0.55;;;21.30;45.90;;;;;;5048786;28;20060;-50
2022/10/20 01:44:15;;;;;;;0.60;0.50;;;21.30;45.90;;;;;;5050117;28;20124;-50
2022/10/20 01:46:43;;;;;;;1.88;1.10;;;21.30;45.90;;;;;;5053635;28;20082;-50
2022/10/20 01:49:09;;;;;;;1.52;0.73;;;21.30;45.90;;;;;;5051576;28;20053;-49
2022/10/20 01:51:35;;;;;;;1.17;0.70;;;21.30;45.90;;;;;;5050869;28;20099;-48
2022/10/20 01:54:01;;;;;;;1.70;1.08;;;21.30;45.90;;;;;;5053000;28;20155;-48
2022/10/20 01:56:51;;;;;;;2.88;0.70;;;21.30;45.90;;;;;;5053084;28;20430;-53
2022/10/20 01:59:28;;;;;;;1.05;0.60;;;21.30;45.90;;;;;;5052420;28;20357;-54
2022/10/20 02:01:59;;;;;;;1.45;0.80;;;21.30;45.90;;;;;;5052799;28;20045;-51
2022/10/20 02:04:54;;;;;;;1.33;0.90;;;21.30;45.90;;;;;;5052946;28;20020;-52
2022/10/20 02:07:23;;;;;;;;;;;21.30;45.90;;;;;;5016128;28;20050;-51
2022/10/20 02:09:54;;;;;;;0.88;0.70;;;21.30;45.90;;;;;;5050596;28;19909;-52
2022/10/20 02:12:27;;;;;;;1.55;0.75;;;21.30;45.90;;;;;;5050215;28;20021;-51
2022/10/20 02:14:54;;;;;;;0.90;0.70;;;21.30;45.90;;;;;;5050490;28;20090;-53
2022/10/20 02:17:20;;;;;;;0.95;0.70;;;21.30;45.90;;;;;;5052588;28;20156;-54
2022/10/20 02:19:50;;;;;;;1.00;0.60;;;21.30;45.90;;;;;;5050029;28;20041;-53
2022/10/20 02:22:18;;;;;;;1.02;0.60;;;21.30;45.90;;;;;;5052931;28;20028;-53
2022/10/20 02:24:44;;;;;;;1.25;0.60;;;21.30;45.90;;;;;;5051464;28;20064;-53
2022/10/20 02:27:13;;;;;;;1.50;0.90;;;21.20;46.40;;;;;;5052568;28;20029;-49
2022/10/20 02:29:47;;;;;;;2.22;0.80;;;21.30;45.90;;;;;;5052496;28;20024;-52
2022/10/20 02:32:14;;;;;;;0.88;0.65;;;21.30;45.90;;;;;;5049232;28;20436;-52
2022/10/20 02:34:41;;;;;;;1.00;0.52;;;21.30;45.80;;;;;;5049635;28;20107;-52
2022/10/20 02:37:06;;;;;;;1.27;0.70;;;21.20;45.70;;;;;;5052400;28;20441;-52
2022/10/20 02:39:32;;;;;;;1.00;0.85;;;21.30;45.80;;;;;;5052363;28;20037;-53
2022/10/20 02:41:58;;;;;;;3.05;0.70;;;21.30;45.80;;;;;;5050510;28;20453;-51
2022/10/20 02:44:24;;;;;;;0.73;0.52;;;21.30;45.70;;;;;;5052253;28;20040;-52
2022/10/20 02:46:50;;;;;;;1.85;0.70;;;21.30;45.70;;;;;;5051980;28;20029;-49
2022/10/20 02:49:15;;;;;;;1.65;0.88;;;21.30;45.70;;;;;;5051497;28;20028;-50
2022/10/20 02:51:41;;;;;;;1.50;0.80;;;21.30;45.80;;;;;;5049778;28;20436;-53
2022/10/20 02:54:07;;;;;;;1.08;0.60;;;21.30;45.70;;;;;;5048619;28;20441;-49
2022/10/20 02:56:33;;;;;;;0.80;0.60;;;21.30;45.70;;;;;;5050364;28;20035;-50
2022/10/20 02:58:59;;;;;;;1.15;0.88;;;21.30;45.70;;;;;;5050771;28;20033;-52
2022/10/20 03:01:24;;;;;;;2.63;0.60;;;21.30;45.70;;;;;;5052019;28;20400;-50
2022/10/20 03:03:50;;;;;;;1.30;0.65;;;21.30;45.70;;;;;;5051522;28;20033;-54
2022/10/20 03:06:16;;;;;;;4.30;0.95;;;21.30;45.70;;;;;;5051107;28;20040;-52
2022/10/20 03:08:43;;;;;;;1.25;0.60;;;21.30;45.70;;;;;;5049724;28;20021;-49
2022/10/20 03:11:08;;;;;;;1.52;0.70;;;21.20;45.60;;;;;;5051037;28;20044;-54
2022/10/20 03:13:34;;;;;;;1.33;0.77;;;21.30;45.70;;;;;;5051337;28;20044;-52
2022/10/20 03:16:00;;;;;;;1.60;0.70;;;21.20;45.60;;;;;;5051114;28;20041;-52
2022/10/20 03:18:26;;;;;;;1.63;0.73;;;21.20;45.70;;;;;;5047641;28;20029;-52
2022/10/20 03:20:53;;;;;;;1.40;0.95;;;21.20;45.70;;;;;;5051080;28;20020;-51
2022/10/20 03:23:19;;;;;;;2.08;0.70;;;21.20;45.70;;;;;;5049665;28;20044;-50
2022/10/20 03:25:45;;;;;;;1.65;0.77;;;21.20;45.70;;;;;;5051400;28;20029;-52
2022/10/20 03:28:11;;;;;;;0.90;0.60;;;21.20;45.70;;;;;;5050314;28;20033;-48
2022/10/20 03:30:36;;;;;;;1.02;0.90;;;21.20;45.70;;;;;;5051222;28;20025;-49
2022/10/20 03:33:02;;;;;;;0.75;0.65;;;21.20;45.80;;;;;;5051334;28;20025;-46
2022/10/20 03:35:28;;;;;;;1.40;0.90;;;21.20;45.90;;;;;;5049338;28;20029;-51
2022/10/20 03:37:54;;;;;;;1.38;0.60;;;21.20;45.80;;;;;;5046898;28;20063;-51
2022/10/20 03:40:20;;;;;;;1.52;0.70;;;21.20;45.80;;;;;;5049190;28;20346;-52
2022/10/20 03:42:45;;;;;;;0.77;0.60;;;21.20;45.80;;;;;;5048710;28;20040;-51
2022/10/20 03:45:11;;;;;;;1.40;0.70;;;21.20;45.80;;;;;;5050547;28;20029;-51
2022/10/20 03:47:37;;;;;;;0.70;0.60;;;21.20;45.80;;;;;;5050224;28;20033;-49
2022/10/20 03:50:03;;;;;;;1.05;0.60;;;21.20;45.70;;;;;;5050227;28;20024;-47
2022/10/20 03:52:29;;;;;;;1.85;0.70;;;21.20;45.70;;;;;;5050947;28;20082;-52
2022/10/20 03:54:55;;;;;;;1.33;0.70;;;21.20;45.70;;;;;;5049263;28;20053;-51
2022/10/20 03:57:21;;;;;;;1.65;0.52;;;21.20;45.70;;;;;;5050696;28;20099;-47
2022/10/20 03:59:47;;;;;;;1.30;0.60;;;21.20;45.70;;;;;;5049767;28;20131;-49
2022/10/20 04:02:39;;;;;;;0.90;0.68;;;21.20;45.70;;;;;;5049890;28;20624;-49
2022/10/20 04:05:06;;;;;;;0.77;0.50;;;21.20;45.70;;;;;;5050563;28;20095;-46
2022/10/20 04:07:31;;;;;;;2.40;0.75;;;21.20;45.70;;;;;;5050772;28;20317;-47
2022/10/20 04:10:00;;;;;;;1.02;0.68;;;21.20;45.70;;;;;;5049387;28;20067;-47
2022/10/20 04:12:27;;;;;;;1.85;0.80;;;21.20;45.70;;;;;;5048864;28;20112;-48
2022/10/20 04:14:53;;;;;;;0.80;0.57;;;21.20;45.70;;;;;;5050221;28;20029;-50
2022/10/20 04:17:19;;;;;;;0.93;0.70;;;21.20;45.70;;;;;;5048555;28;20090;-50
2022/10/20 04:19:45;;;;;;;2.67;0.90;;;21.20;45.70;;;;;;5047969;28;20051;-49
2022/10/20 04:22:11;;;;;;;1.10;0.75;;;21.20;45.70;;;;;;5048738;28;20029;-51
2022/10/20 04:24:37;;;;;;;0.60;0.50;;;21.20;45.70;;;;;;5049956;28;20112;-49
2022/10/20 04:27:04;;;;;;;0.80;0.70;;;21.20;45.70;;;;;;5048480;28;20100;-46
2022/10/20 04:29:30;;;;;;;3.08;0.75;;;21.20;45.70;;;;;;5050170;28;20029;-51
2022/10/20 04:31:56;;;;;;;1.45;0.80;;;21.20;45.70;;;;;;5046917;28;20413;-52
2022/10/20 04:34:21;;;;;;;0.98;0.60;;;21.10;45.70;;;;;;5050494;28;20063;-50
2022/10/20 04:36:47;;;;;;;1.10;0.80;;;21.20;45.70;;;;;;5049811;28;20115;-51
2022/10/20 04:39:13;;;;;;;1.08;0.65;;;21.10;45.60;;;;;;5050347;28;20055;-50
2022/10/20 04:41:39;;;;;;;1.27;0.70;;;21.20;45.70;;;;;;5047412;28;20449;-50
2022/10/20 04:44:05;;;;;;;1.08;0.60;;;21.20;45.70;;;;;;5049206;28;20120;-50
2022/10/20 04:46:31;;;;;;;1.25;0.77;;;21.20;45.70;;;;;;5047718;28;20028;-50
2022/10/20 04:48:56;;;;;;;1.00;0.70;;;21.10;45.60;;;;;;5048948;28;20053;-52
2022/10/20 04:51:22;;;;;;;1.55;0.77;;;21.10;45.60;;;;;;5049434;28;20025;-52
2022/10/20 04:53:48;;;;;;;0.80;0.60;;;21.10;45.60;;;;;;5050608;28;20029;-54
2022/10/20 04:56:18;;;;;;;1.58;0.90;;;21.20;45.70;;;;;;5048011;28;20033;-50
2022/10/20 04:58:52;;;;;;;1.00;0.73;;;21.10;45.60;;;;;;5049564;28;20040;-54
2022/10/20 05:01:19;;;;;;;2.33;0.77;;;21.10;45.60;;;;;;5047790;28;20036;-51
2022/10/20 05:03:45;;;;;;;1.45;0.80;;;21.10;45.60;;;;;;5047503;28;20135;-52
2022/10/20 05:06:18;;;;;;;1.00;0.88;;;21.10;45.60;;;;;;5049855;28;20057;-53
2022/10/20 05:08:46;;;;;;;1.00;0.63;;;21.10;45.60;;;;;;5048271;28;20082;-54
2022/10/20 05:11:14;;;;;;;1.67;0.60;;;21.10;45.60;;;;;;5050044;28;20032;-50
2022/10/20 05:13:40;;;;;;;1.58;0.75;;;21.10;45.60;;;;;;5049953;28;20073;-51
2022/10/20 05:16:07;;;;;;;2.22;0.70;;;21.10;45.70;;;;;;5049227;28;20063;-50
2022/10/20 05:18:33;;;;;;;0.85;0.60;;;21.10;45.70;;;;;;5045868;28;20127;-54
2022/10/20 05:21:04;;;;;;;1.38;0.65;;;21.10;45.70;;;;;;5047737;28;20029;-47
2022/10/20 05:23:30;;;;;;;1.02;0.77;;;21.10;45.70;;;;;;5049537;28;20033;-49
2022/10/20 05:25:55;;;;;;;0.90;0.70;;;21.10;45.80;;;;;;5046684;28;20447;-50
2022/10/20 05:28:21;;;;;;;1.17;0.65;;;21.10;45.80;;;;;;5048477;28;20050;-49
2022/10/20 05:30:47;;;;;;;0.93;0.70;;;21.10;45.80;;;;;;5049695;28;20021;-51
2022/10/20 05:33:13;;;;;;;1.80;0.70;;;21.10;45.90;;;;;;5050278;28;20028;-54
2022/10/20 05:35:38;;;;;;;1.00;0.70;;;21.10;45.90;;;;;;5049289;28;20107;-53
2022/10/20 05:38:04;;;;;;;1.92;0.90;;;21.10;46.00;;;;;;5048102;28;20037;-50
2022/10/20 05:40:39;;;;;;;1.42;1.00;;;21.10;46.00;;;;;;5050206;28;20041;-53
2022/10/20 05:43:06;;;;;;;1.17;0.80;;;21.10;46.10;;;;;;5042528;28;20032;-52
2022/10/20 05:45:31;;;;;;;1.27;0.77;;;21.10;46.20;;;;;;5049266;28;20021;-54
2022/10/20 05:47:57;;;;;;;3.80;0.85;;;21.10;46.20;;;;;;5046021;28;20033;-47
2022/10/20 05:50:23;;;;;;;1.35;0.77;;;21.10;46.20;;;;;;5049588;28;20025;-50
2022/10/20 05:52:49;;;;;;;1.60;1.20;;;21.10;46.10;;;;;;5048221;28;20028;-49
2022/10/20 05:55:15;;;;;;;2.42;0.80;;;21.10;46.10;;;;;;5048922;28;20407;-52
2022/10/20 05:57:40;;;;;;;1.65;0.90;;;21.10;46.00;;;;;;5047950;28;20021;-53
2022/10/20 06:00:07;;;;;;;1.10;0.90;;;21.10;46.00;;;;;;5048743;28;20033;-52
2022/10/20 06:02:37;;;;;;;1.27;0.75;;;21.10;45.90;;;;;;5046869;28;20064;-54
2022/10/20 06:05:03;;;;;;;1.15;0.73;;;21.10;45.90;;;;;;5049067;28;20025;-54
2022/10/20 06:07:29;;;;;;;1.50;0.80;;;21.10;45.90;;;;;;5047563;28;20035;-51
2022/10/20 06:09:54;;;;;;;2.60;0.88;;;21.10;45.80;;;;;;5048632;28;20464;-52
2022/10/20 06:12:20;;;;;;;3.15;1.00;;;21.10;45.80;;;;;;5047625;28;20504;-50
2022/10/20 06:14:46;;;;;;;1.27;0.80;;;21.10;45.80;;;;;;5047511;28;20033;-50
2022/10/20 06:17:12;;;;;;;1.77;0.95;;;21.10;45.80;;;;;;5048212;28;20029;-47
2022/10/20 06:19:38;;;;;;;1.17;0.80;;;21.10;45.80;;;;;;5048830;28;20033;-51
2022/10/20 06:22:04;;;;;;;1.27;0.75;;;21.10;45.90;;;;;;5048416;28;20463;-48
2022/10/20 06:24:29;;;;;;;2.63;1.10;;;21.10;45.90;;;;;;5048227;28;20033;-53
2022/10/20 06:26:55;;;;;;;1.08;0.80;;;21.10;45.90;;;;;;5048859;28;20419;-50
2022/10/20 06:29:21;;;;;;;1.60;0.88;;;21.10;45.90;;;;;;5052672;28;20037;-51
2022/10/20 06:31:50;;;;;;;4.85;0.90;;;21.10;45.90;;;;;;5057157;28;20462;-48
2022/10/20 06:34:22;;;;;;;1.73;0.75;;;21.10;45.90;;;;;;5056842;28;20032;-53
2022/10/20 06:36:49;;;;;;;1.67;1.00;;;21.10;45.90;;;;;;5052720;28;20449;-49
2022/10/20 06:39:21;;;;;;;1.83;1.05;;;21.10;46.00;;;;;;5050760;28;20041;-49
2022/10/20 06:41:52;;;;;;;1.50;1.10;;;21.10;45.90;;;;;;5051902;28;20039;-50
2022/10/20 06:44:20;;;;;;;2.20;0.95;;;21.10;46.00;;;;;;5052186;28;20025;-50
2022/10/20 06:46:46;;;;;;;2.10;1.00;;;21.10;46.10;;;;;;5043612;28;20029;-50
2022/10/20 06:49:13;;;;;;;2.58;1.10;;;21.10;46.20;;;;;;5045065;28;20036;-48
2022/10/20 06:51:40;;;;;;;1.73;1.10;;;21.10;46.20;;;;;;5055154;28;20021;-50
2022/10/20 06:54:06;;;;;;;1.30;0.93;;;21.10;46.10;;;;;;5056247;28;20044;-48
2022/10/20 06:56:35;;;;;;;1.95;1.08;;;21.10;46.00;;;;;;5049696;28;20447;-52
2022/10/20 06:59:01;;;;;;;1.38;0.93;;;21.10;45.90;;;;;;5052215;28;20099;-48
2022/10/20 07:01:33;;;;;;;1.65;1.13;;;21.10;45.90;;;;;;5056075;28;20099;-50
2022/10/20 07:04:02;;;;;;;2.47;1.65;;;21.00;45.90;;;;;;5057468;28;20060;-48
2022/10/20 07:06:33;;;;;;;1.80;0.98;;;21.10;46.00;;;;;;5057064;28;20087;-54
2022/10/20 07:09:00;;;;;;;3.40;1.25;;;21.10;46.00;;;;;;5055608;28;20029;-48
2022/10/20 07:11:28;;;;;;;2.20;1.15;;;21.10;45.90;;;;;;5056517;28;20029;-54
2022/10/20 07:13:56;;;;;;;2.13;1.08;;;21.00;45.80;;;;;;5057215;28;20068;-51
2022/10/20 07:16:24;;;;;;;1.52;1.02;;;21.10;45.80;;;;;;5055603;28;20406;-48
2022/10/20 07:18:50;;;;;;;2.17;1.30;;;21.10;45.70;;;;;;5053429;28;20048;-49
2022/10/20 07:21:19;;;;;;;1.45;1.10;;;21.10;45.70;;;;;;5057156;28;20087;-53
2022/10/20 07:23:46;;;;;;;1.30;0.73;;;21.10;45.60;;;;;;5056496;28;20047;-51
2022/10/20 07:26:15;;;;;;;1.33;0.90;;;21.10;45.60;;;;;;5057219;28;20108;-51
2022/10/20 07:28:44;;;;;;;1.17;1.00;;;21.10;45.60;;;;;;5056955;28;20167;-47
2022/10/20 07:31:16;;;;;;;2.08;1.10;;;21.00;45.50;;;;;;5056745;28;20029;-46
2022/10/20 07:33:43;;;;;;;1.35;0.90;;;21.10;45.60;;;;;;5052312;28;20033;-46
2022/10/20 07:36:14;;;;;;;1.85;1.35;;;21.00;45.50;;;;;;5055952;28;20033;-49
2022/10/20 07:38:40;;;;;;;2.35;1.35;;;21.10;45.50;;;;;;5056594;28;20037;-49
2022/10/20 07:41:06;;;;;;;2.47;1.30;;;21.00;45.50;;;;;;5056356;28;20039;-49
2022/10/20 07:43:32;;;;;;;3.20;1.55;;;21.10;45.50;;;;;;5056304;28;20029;-47
2022/10/20 07:45:58;;;;;;;3.88;2.13;;;21.00;45.50;;;;;;5055317;28;20021;-48
2022/10/20 07:48:23;;;;;;;5.45;2.22;;;21.10;45.50;;;;;;5042683;28;20424;-47
2022/10/20 07:50:49;;;;;;;5.50;1.98;;;21.00;45.40;;;;;;5050750;28;20029;-48
2022/10/20 07:53:15;;;;;;;5.22;2.60;;;21.00;45.50;;;;;;5050502;28;20462;-47
2022/10/20 07:55:41;;;;;;;5.40;2.13;;;21.10;45.60;;;;;;5055844;28;20024;-50
2022/10/20 07:58:06;;;;;;;5.97;2.50;;;21.00;45.50;;;;;;5055396;28;20116;-47
2022/10/20 08:00:32;;;;;;;5.07;2.00;;;21.00;45.60;;;;;;5056021;28;20041;-48
2022/10/20 08:02:58;;;;;;;5.20;2.20;;;21.00;45.70;;;;;;5056109;28;20029;-50
2022/10/20 08:05:24;;;;;;;3.65;2.00;;;21.00;45.70;;;;;;5054670;28;20033;-52
2022/10/20 08:07:50;;;;;;;3.20;1.65;;;21.00;45.90;;;;;;5055756;28;20039;-50
2022/10/20 08:10:16;;;;;;;3.65;2.05;;;21.00;45.90;;;;;;5055227;28;20087;-49
2022/10/20 08:12:41;;;;;;;3.45;1.80;;;21.00;46.00;;;;;;5055773;28;20107;-49
2022/10/20 08:15:08;;;;;;;2.25;1.80;;;21.00;46.10;;;;;;5056221;28;20370;-49
2022/10/20 08:17:34;;;;;;;3.13;1.83;;;21.00;46.20;;;;;;5054875;28;20517;-51
2022/10/20 08:20:00;;;;;;;2.67;1.70;;;21.00;46.30;;;;;;5054133;28;20071;-48
2022/10/20 08:22:25;;;;;;;3.40;1.83;;;21.00;46.30;;;;;;5055740;28;20021;-47
2022/10/20 08:24:52;;;;;;;2.63;1.58;;;21.00;46.30;;;;;;5055380;28;20036;-47
2022/10/20 08:27:18;;;;;;;2.78;1.52;;;20.90;46.20;;;;;;5055998;28;20111;-50
2022/10/20 08:29:44;;;;;;;2.22;1.40;;;21.00;46.30;;;;;;5055557;28;20116;-48
2022/10/20 08:32:11;;;;;;;2.60;1.40;;;20.90;46.30;;;;;;5054634;28;20029;-49
2022/10/20 08:34:38;;;;;;;3.45;1.70;;;20.90;46.40;;;;;;5055251;28;20064;-47
2022/10/20 08:37:03;;;;;;;2.28;1.42;;;20.90;46.50;;;;;;5055252;28;20039;-49
2022/10/20 08:39:29;;;;;;;3.17;1.33;;;20.90;46.50;;;;;;5055303;28;20033;-49
2022/10/20 08:42:02;;;;;;;2.65;1.50;;;20.90;46.50;;;;;;5055346;28;20444;-47
2022/10/20 08:44:32;;;;;;;1.95;1.30;;;20.90;46.70;;;;;;5055788;28;20394;-49
2022/10/20 08:47:01;;;;;;;2.85;1.65;;;20.90;46.80;;;;;;5054542;28;20115;-46
2022/10/20 08:49:30;;;;;;;2.00;1.33;;;20.90;47.00;;;;;;5053361;28;20337;-62
2022/10/20 08:51:57;;;;;;;2.58;1.70;;;20.90;47.10;;;;;;5054186;28;20021;-47
2022/10/20 08:54:23;;;;;;;2.53;1.42;;;20.90;47.10;;;;;;5053152;28;20037;-46
2022/10/20 08:56:49;;;;;;;6.18;1.70;;;20.80;47.10;;;;;;5055659;28;20036;-47
2022/10/20 08:59:33;;;;;;;1.77;1.52;;;20.90;47.80;;;;;;5052902;28;20055;-48
2022/10/20 09:01:59;;;;;;;2.75;1.50;;;20.90;47.20;;;;;;5053774;28;20028;-51
2022/10/20 09:04:34;;;;;;;3.15;1.50;;;20.90;47.10;;;;;;5054663;28;20404;-47
2022/10/20 09:07:08;;;;;;;2.38;1.30;;;20.90;47.10;;;;;;5054128;28;20037;-52
2022/10/20 09:09:35;;;;;;;1.85;1.50;;;20.90;47.10;;;;;;5046006;28;20032;-47
2022/10/20 09:12:06;;;;;;;3.28;1.60;;;20.90;47.20;;;;;;5055123;28;20103;-47
2022/10/20 09:14:35;;;;;;;2.92;1.50;;;20.90;47.20;;;;;;5053855;28;20484;-50
2022/10/20 09:17:01;;;;;;;4.40;1.95;;;20.90;47.20;;;;;;5054185;28;20029;-49
2022/10/20 09:19:28;;;;;;;2.65;1.80;;;20.90;47.20;;;;;;5053830;28;20044;-49
2022/10/20 09:22:01;;;;;;;1.98;1.30;;;20.90;47.20;;;;;;5054848;28;20107;-48
2022/10/20 09:24:29;;;;;;;2.17;1.52;;;20.90;47.20;;;;;;5052971;28;20104;-52
2022/10/20 09:26:55;;;;;;;3.00;1.70;;;20.90;47.30;;;;;;5053739;28;20033;-51
2022/10/20 09:29:34;;;;;;;3.15;1.83;;;20.90;47.30;;;;;;5055003;28;20095;-48
2022/10/20 09:31:59;;;;;;;1.70;1.50;;;20.90;47.40;;;;;;5055228;28;20025;-49
2022/10/20 09:34:31;;;;;;;2.95;1.40;;;20.90;47.40;;;;;;5053292;28;20029;-48
2022/10/20 09:37:05;;;;;;;2.45;1.58;;;20.90;47.40;;;;;;5053978;28;20091;-50
2022/10/20 09:39:39;;;;;;;2.58;1.88;;;20.90;47.50;;;;;;5054647;28;20048;-47
2022/10/20 09:42:12;;;;;;;3.13;1.50;;;20.90;47.50;;;;;;5053092;28;20061;-48
2022/10/20 09:44:55;;;;;;;2.20;1.50;;;20.90;47.60;;;;;;5053287;28;20116;-49
2022/10/20 09:47:23;;;;;;;1.50;1.40;;;20.90;47.50;;;;;;5054900;28;20053;-47
2022/10/20 09:49:55;;;;;;;3.65;1.92;;;20.90;47.60;;;;;;5052636;28;20039;-49
2022/10/20 09:52:26;;;;;;;2.17;1.20;;;20.80;47.60;;;;;;5052734;28;20029;-50
2022/10/20 09:55:00;;;;;;;2.03;1.52;;;20.80;47.70;;;;;;5053888;28;20116;-51
2022/10/20 09:57:26;;;;;;;2.55;1.50;;;20.90;47.80;;;;;;5051602;28;20044;-49
2022/10/20 09:59:54;;;;;;;2.38;1.42;;;20.90;47.80;;;;;;5053072;28;20040;-49
2022/10/20 10:02:22;;;;;;;1.90;1.50;;;20.90;47.90;;;;;;5047451;28;20056;-51
2022/10/20 10:04:53;;;;;;;2.97;1.85;;;20.90;47.90;;;;;;5051575;28;20368;-49
2022/10/20 10:07:24;;;;;;;3.75;1.50;;;20.90;48.00;;;;;;5050827;28;20044;-52
2022/10/20 10:10:03;;;;;;;1.70;1.58;;;20.80;48.00;;;;;;5055260;28;20094;-48
2022/10/20 10:12:30;;;;;;;3.08;1.65;;;20.90;48.10;;;;;;5055284;28;20334;-47
2022/10/20 10:15:02;;;;;;;3.40;1.65;;;20.90;48.20;;;;;;5057891;28;20032;-47
2022/10/20 10:17:34;;;;;;;3.20;1.20;;;20.80;48.60;;;;;;5054956;28;20024;-63
2022/10/20 10:20:04;;;;;;;2.15;1.42;;;20.90;48.50;;;;;;5051928;28;20089;-51
2022/10/20 10:22:30;;;;;;;2.50;1.60;;;20.90;48.30;;;;;;5056667;28;20037;-49
2022/10/20 10:24:56;;;;;;;2.92;1.67;;;20.90;48.40;;;;;;5056294;28;20040;-51
2022/10/20 10:27:29;;;;;;;5.60;1.80;;;20.80;48.40;;;;;;5058361;28;20060;-52
2022/10/20 10:30:15;;;;;;;3.30;1.85;;;20.80;48.30;;;;;;5062917;28;20118;-52
2022/10/20 10:32:46;;;;;;;3.05;2.08;;;20.80;48.30;;;;;;5055975;28;20025;-52
2022/10/20 10:35:41;;;;;;;2.15;1.67;;;20.80;48.30;;;;;;5057299;28;20029;-48
2022/10/20 10:38:08;;;;;;;;;;;20.80;48.40;;;;;;5052898;28;20026;-51
2022/10/20 10:40:44;;;;;;;3.63;1.67;;;20.80;48.60;;;;;;5058923;28;19920;-51
2022/10/20 10:43:42;;;;;;;3.85;2.20;;;20.80;48.90;;;;;;5056666;28;20029;-49
2022/10/20 10:46:18;;;;;;;3.80;1.73;;;20.80;49.10;;;;;;5052895;28;20025;-56
2022/10/20 10:48:59;;;;;;;2.85;1.90;;;20.80;49.40;;;;;;5050321;28;20033;-55
2022/10/20 10:51:57;;;;;;;2.78;2.08;;;20.80;49.70;;;;;;5047008;28;20311;-58
2022/10/20 10:54:42;;;;;;;3.70;1.95;;;20.80;50.00;;;;;;5048638;28;20028;-56
2022/10/20 10:57:39;;;;;;;3.90;1.48;;;20.80;50.30;;;;;;5046602;28;20357;-56
2022/10/20 11:00:19;;;;;;;3.58;1.58;;;20.90;50.40;;;;;;5042382;28;20118;-52
2022/10/20 11:02:58;;;;;;;2.53;1.50;;;21.10;50.50;;;;;;5046028;28;20368;-58
2022/10/20 11:06:02;;;;;;;2.75;1.42;;;21.10;50.40;;;;;;5050736;28;20511;-56
2022/10/20 11:08:53;;;;;;;2.80;1.50;;;21.30;50.40;;;;;;5049038;28;20487;-55
2022/10/20 11:11:42;;;;;;;3.83;1.70;;;21.40;50.20;;;;;;5050675;28;20047;-56
2022/10/20 11:14:30;;;;;;;3.15;1.88;;;21.50;49.90;;;;;;5050334;28;20060;-57
2022/10/20 11:17:07;;;;;;;2.05;1.77;;;21.60;49.70;;;;;;5049955;28;20036;-60
2022/10/20 11:20:02;;;;;;;3.25;1.60;;;21.70;49.50;;;;;;5049501;28;20559;-59
2022/10/20 11:23:00;;;;;;;2.45;1.65;;;21.90;49.40;;;;;;5046737;28;20029;-60
2022/10/20 11:25:37;;;;;;;4.10;1.50;;;21.90;49.10;;;;;;5037384;28;20388;-56
2022/10/20 11:28:21;;;;;;;2.58;1.73;;;22.10;49.00;;;;;;5048678;28;20062;-59
2022/10/20 11:30:51;;;;;;;3.33;1.42;;;22.10;48.90;;;;;;5047222;28;20040;-57
2022/10/20 11:33:22;;;;;;;1.90;1.60;;;22.20;48.70;;;;;;5041379;28;20029;-54
2022/10/20 11:35:57;;;;;;;3.03;1.52;;;22.30;48.70;;;;;;5049814;28;20025;-56
2022/10/20 11:38:51;;;;;;;2.17;1.35;;;22.40;48.80;;;;;;5049204;28;20024;-57
2022/10/20 11:41:28;;;;;;;2.55;1.70;;;22.40;49.00;;;;;;5050552;28;20127;-56
2022/10/20 11:44:03;;;;;;;1.85;1.30;;;22.50;49.10;;;;;;5048014;28;20020;-55
2022/10/20 11:46:59;;;;;;;2.88;1.80;;;22.50;49.00;;;;;;5046458;28;20416;-55
2022/10/20 11:49:25;;;;;;;2.83;1.60;;;22.60;48.80;;;;;;5047341;28;20043;-57
2022/10/20 11:52:09;;;;;;;2.25;1.50;;;22.70;48.70;;;;;;5054159;28;20044;-58
2022/10/20 11:55:01;;;;;;;2.30;1.70;;;22.70;48.40;;;;;;5049900;28;20094;-54
2022/10/20 11:57:50;;;;;;;2.70;1.95;;;22.80;48.30;;;;;;5051571;28;20029;-53
2022/10/20 12:00:43;;;;;;;2.45;1.67;;;22.80;48.10;;;;;;5044282;28;20041;-53
2022/10/20 12:03:24;;;;;;;2.42;1.80;;;22.80;48.00;;;;;;5047607;28;20444;-58
2022/10/20 12:06:18;;;;;;;2.63;1.83;;;22.80;47.80;;;;;;5049038;28;20461;-59
2022/10/20 12:09:38;;;;;;;2.40;1.52;;;22.80;47.80;;;;;;5053835;28;20052;-58
2022/10/20 12:12:25;;;;;;;2.65;1.65;;;22.90;47.70;;;;;;4994714;28;20053;-57
2022/10/20 12:14:58;;;;;;;2.88;1.67;;;22.80;47.70;;;;;;5055986;28;20044;-57
2022/10/20 12:17:31;;;;;;;2.55;1.70;;;22.80;47.60;;;;;;5056376;28;20409;-58
2022/10/20 12:20:35;;;;;;;3.33;1.75;;;22.80;47.60;;;;;;5054775;28;20469;-58
2022/10/20 12:23:01;;;;;;;1.60;1.25;;;22.80;47.60;;;;;;4975140;28;20050;-54
2022/10/20 12:25:30;;;;;;;2.38;1.70;;;22.80;47.70;;;;;;5040877;28;20460;-54
2022/10/20 12:28:23;;;;;;;1.70;1.52;;;22.80;47.70;;;;;;5054301;28;20087;-59
2022/10/20 12:31:04;;;;;;;2.13;1.50;;;22.80;47.70;;;;;;5055348;28;20029;-55
2022/10/20 12:33:34;;;;;;;2.50;1.83;;;22.80;47.80;;;;;;5055808;28;20033;-56
2022/10/20 12:36:18;;;;;;;4.13;1.60;;;22.80;47.80;;;;;;5055697;28;20116;-55
2022/10/20 12:38:53;;;;;;;2.70;1.60;;;22.80;47.90;;;;;;5054980;28;20073;-55
2022/10/20 12:41:34;;;;;;;2.55;1.63;;;22.80;47.90;;;;;;5056069;28;20044;-56
2022/10/20 12:44:06;;;;;;;2.97;1.75;;;22.80;47.90;;;;;;5055120;28;20064;-59
2022/10/20 12:46:41;;;;;;;2.55;1.52;;;22.80;47.90;;;;;;5053039;28;20043;-56
2022/10/20 12:49:19;;;;;;;2.80;1.70;;;22.80;48.00;;;;;;5055274;28;20044;-56
2022/10/20 12:51:50;;;;;;;5.05;1.60;;;22.80;48.00;;;;;;5054980;28;20033;-56
2022/10/20 12:54:24;;;;;;;2.25;1.60;;;22.70;48.00;;;;;;5054941;28;20448;-55
2022/10/20 12:56:56;;;;;;;2.03;1.60;;;22.80;48.10;;;;;;5054222;28;20118;-56
2022/10/20 12:59:33;;;;;;;2.28;1.65;;;22.70;48.10;;;;;;5053415;28;20032;-54
2022/10/20 13:02:08;;;;;;;3.85;2.08;;;22.70;48.10;;;;;;5053542;28;20106;-56
2022/10/20 13:04:58;;;;;;;2.53;1.90;;;22.80;48.30;;;;;;5053400;28;20028;-54
2022/10/20 13:07:46;;;;;;;3.35;1.95;;;22.70;48.20;;;;;;5064223;28;20060;-56